Share

Haugen, WI (54841)

1:15 AM CDT on April 24, 2014 (GMT -0500)
Shell Lake (KWISHELL2) Elev 1230 ft | 45.72 °N, 91.89 °W | Change Station

Current weather conditions updated 48 seconds ago

Overcast
Overcast
38.0 °F
Feels Like 38 °F
N
0.4
Wind Variable Wind from SSE
Gusts 2.0 mph
Sunrise 6:06 AM
Sunset 8:05 PM
Moon Waning Crescent

Today is forecast to be Much Cooler than yesterday. Cloudy, periods of rain.

Pressure 29.99 in
Visibility 10.0 miles
Clouds Overcast 600 ft
Windchill 38 °F
Dew Point 36 °F
Humidity 93%
Rainfall 0.02 in
Snow Depth Not available.
UV 0 out of 16
Pollen 9.70 out of 12
Air Quality Not available.
Flu Activity Sporadic
METAR KUBE 240555Z AUTO 12010KT 10SM OVC006 03/02 A2999 RMK AO2

More Conditions Fewer Conditions

Pressure 29.99 in
Visibility 10.0 miles
Clouds Overcast 600 ft
Windchill 38 °F
Dew Point 36 °F
Humidity 93%
Rainfall 0.02 in
Snow Depth Not available.
UV 0 out of 16
Pollen 9.70 out of 12
Air Quality Not available.
Flu Activity Sporadic
METAR KUBE 240555Z AUTO 12010KT 10SM OVC006 03/02 A2999 RMK AO2

More Conditions Fewer Conditions

10-Day Weather Forecast

Almanac

Astronomy

Apr. 24, 2014 Rise Set
Actual Time 6:06 AM CDT 8:05 PM CDT
Civil Twilight 5:34 AM CDT 8:37 PM CDT
Nautical Twilight 4:54 AM CDT 9:16 PM CDT
Astronomical Twilight 4:11 AM CDT 10:00 PM CDT
Moon 3:32 AM CDT 3:07 PM CDT
Length of Visible Light 15h 03m
Length of Day
13h 59m
Tomorrow will be 2m 57s longer.
Waning Crescent, 29% of the Moon is Illuminated
Today
Waning Crescent
Apr 29
New
May 6
First Quarter
May 14
Full
May 21
Last Quarter

Today's Extremes

State Highs State Lows

Community

  • Stacked
    Stacked
  • clouds approaching Red Sox Nation
    clouds approaching Red Sox Nation
  • Balance
    Balance
  • Nestled In
    Nestled In
  • Stunning Sunrise
    Stunning Sunrise

WunderPhotos

Upload Photos

1,704,566 photos uploaded!

WunderBlogs® & News

Nearby

Snow Depth

Station Depth Elevation
No new snow has been reported.

Coastal Water Temperatures

Place Temperature
No Stations Reporting

Earthquake Activity

City Distance Mag. Time & Date
No recent earthquake activity has been reported nearby.
Minimum magnitude displayed is 2.5.

Nearby Weather Stations

Station Location Temp. Windchill Dew Point Humidity Wind Precip. Elev Updated Type
WIDOT Haugen - USH 53 @ 30th Ave., Haugen, WI 38 °F 32 °F 36 °F 93% SE  at  9 mph 0.00 in / hr 1280 ft 12:06 AM CDT MADIS
Shell Lake, Shell Lake, WI 38.0 °F 38 °F 36 °F 93% SSE  at  0.4 mph - / hr 1230 ft 1:15 AM CDT Normal
Shell Lake, WI 37.6 °F 27 °F 37 °F 99% SE  at  19.7 mph - / hr 1240 ft 1:13 AM CDT Normal
Chris and Kristin Olson, Barron, WI 38.2 °F 33 °F 38 °F 98% ESE  at  6.4 mph 0.00 in / hr 1122 ft 1:15 AM CDT Rapid Fire

Show More Stations Show Fewer Stations

What do you think?

We're not finished. Please let us know what you like, what you don't like, and what you are still missing.